Time;durP1;ratioP1;P1;durP2;ratioP2;P2;SDS_P1;SDS_P2;PMS_P1;PMS_P2;Temp;Humidity;BMP_temperature;BMP_pressure;BME280_temperature;BME280_humidity;BME280_pressure;Samples;Min_cycle;Max_cycle;Signal;HPM_P1;HPM_P2
2022/03/26 00:02:12;;;;;;;49.67;22.33;;;;;;;8.84;49.29;101423.09;5110285;28;20015;-75
2022/03/26 00:04:38;;;;;;;51.00;22.33;;;;;;;8.71;49.14;101418.63;5112041;28;20111;-74
2022/03/26 00:07:03;;;;;;;53.90;22.80;;;;;;;8.60;49.36;101423.75;5111642;28;20031;-75
2022/03/26 00:09:29;;;;;;;61.03;24.50;;;;;;;8.47;50.04;101420.13;5111973;28;20123;-75
2022/03/26 00:11:54;;;;;;;63.05;25.08;;;;;;;8.34;50.35;101430.72;5111695;28;20110;-74
2022/03/26 00:14:20;;;;;;;57.90;23.38;;;;;;;8.25;50.81;101435.75;5110416;28;20475;-74
2022/03/26 00:16:45;;;;;;;50.60;23.70;;;;;;;8.14;51.00;101435.53;5111968;28;20470;-74
2022/03/26 00:19:11;;;;;;;54.17;22.40;;;;;;;8.09;51.24;101441.13;5111379;28;20502;-75
2022/03/26 00:21:36;;;;;;;53.92;23.02;;;;;;;8.02;51.58;101444.25;5109767;28;20038;-75
2022/03/26 00:24:02;;;;;;;49.97;23.65;;;;;;;7.96;52.01;101441.97;5110103;28;20441;-75
2022/03/26 00:26:27;;;;;;;45.53;23.08;;;;;;;7.78;51.93;101429.69;5111046;28;20043;-75
2022/03/26 00:28:53;;;;;;;56.42;24.27;;;;;;;7.79;52.68;101450.09;5110653;28;20044;-74
2022/03/26 00:31:18;;;;;;;50.97;23.63;;;;;;;7.67;52.43;101449.00;5109570;28;20035;-74
2022/03/26 00:33:44;;;;;;;56.15;23.65;;;;;;;7.51;52.98;101433.97;5109768;28;20058;-75
2022/03/26 00:36:10;;;;;;;46.78;22.08;;;;;;;7.39;53.02;101430.19;5111053;28;20042;-74
2022/03/26 00:38:35;;;;;;;49.03;22.20;;;;;;;7.32;53.71;101439.47;5111272;28;20526;-75
2022/03/26 00:41:01;;;;;;;54.78;23.38;;;;;;;7.29;53.78;101445.03;5110755;27;20475;-75
2022/03/26 00:43:26;;;;;;;55.17;23.30;;;;;;;7.16;54.42;101432.44;5109650;28;20034;-75
2022/03/26 00:45:52;;;;;;;54.13;23.90;;;;;;;7.13;54.40;101438.81;5111023;28;20099;-75
2022/03/26 00:48:17;;;;;;;53.00;24.77;;;;;;;7.11;54.25;101440.69;5109631;28;20038;-75
2022/03/26 00:50:43;;;;;;;59.42;23.80;;;;;;;7.09;54.74;101452.41;5109470;28;20024;-75
2022/03/26 00:53:09;;;;;;;54.22;24.20;;;;;;;6.93;54.99;101425.69;5110791;28;20031;-75
2022/03/26 00:55:35;;;;;;;53.67;25.15;;;;;;;6.96;54.89;101446.88;5109888;28;20396;-75
2022/03/26 00:58:00;;;;;;;52.97;24.50;;;;;;;6.82;54.59;101428.97;5111164;28;20020;-75
2022/03/26 01:00:27;;;;;;;57.88;25.17;;;;;;;6.85;54.70;101444.81;5110718;28;20043;-73
2022/03/26 01:02:53;;;;;;;57.25;24.15;;;;;;;6.73;54.60;101440.13;5109298;28;20077;-72
2022/03/26 01:05:18;;;;;;;50.70;22.38;;;;;;;6.71;54.61;101435.84;5112972;28;20032;-73
2022/03/26 01:07:46;;;;;;;49.05;22.05;;;;;;;6.64;54.68;101443.28;5113179;28;20026;-72
2022/03/26 01:10:11;;;;;;;51.05;24.08;;;;;;;6.54;54.54;101431.41;5114504;28;20030;-72
2022/03/26 01:12:37;;;;;;;47.13;23.70;;;;;;;6.57;54.62;101449.91;5114749;28;20110;-73
2022/03/26 01:15:03;;;;;;;60.83;24.80;;;;;;;6.50;54.91;101442.31;5113396;28;20042;-72
2022/03/26 01:17:29;;;;;;;62.47;25.02;;;;;;;6.30;55.41;101430.06;5113147;28;20107;-72
2022/03/26 01:19:55;;;;;;;57.15;25.58;;;;;;;6.30;55.40;101442.50;5114703;28;20027;-73
2022/03/26 01:22:20;;;;;;;56.47;24.45;;;;;;;6.24;55.87;101441.03;5113017;28;20028;-72
2022/03/26 01:24:46;;;;;;;53.30;24.20;;;;;;;6.18;55.80;101444.00;5114219;28;20080;-72
2022/03/26 01:27:11;;;;;;;52.15;24.50;;;;;;;6.11;56.40;101439.94;5114636;28;20026;-72
2022/03/26 01:29:40;;;;;;;52.28;24.38;;;;;;;5.99;56.59;101429.91;5113939;28;20048;-72
2022/03/26 01:32:08;;;;;;;53.78;25.20;;;;;;;6.03;56.61;101442.13;5114569;28;20031;-73
2022/03/26 01:34:34;;;;;;;56.58;26.80;;;;;;;5.99;57.02;101437.03;5114313;28;20050;-72
2022/03/26 01:37:01;;;;;;;58.50;27.10;;;;;;;5.85;57.41;101421.78;5112880;28;20471;-72
2022/03/26 01:39:27;;;;;;;66.82;27.10;;;;;;;5.91;57.53;101442.78;5114028;28;20447;-72
2022/03/26 01:41:53;;;;;;;66.72;29.02;;;;;;;5.81;57.70;101429.97;5114107;28;20031;-72
2022/03/26 01:44:18;;;;;;;64.80;28.17;;;;;;;5.72;57.85;101423.31;5112360;28;20546;-72
2022/03/26 01:46:49;;;;;;;67.95;28.23;;;;;;;5.66;58.38;101415.63;5112513;28;20055;-72
2022/03/26 01:49:15;;;;;;;59.63;28.42;;;;;;;5.70;58.33;101427.84;5113835;28;20027;-72
2022/03/26 01:51:41;;;;;;;65.13;29.15;;;;;;;5.63;58.62;101423.75;5114121;28;20039;-72
2022/03/26 01:54:07;;;;;;;59.30;27.83;;;;;;;5.60;58.69;101421.25;5114058;27;20386;-72
2022/03/26 01:56:33;;;;;;;57.85;28.13;;;;;;;5.64;58.77;101433.47;5111110;28;20821;-72
2022/03/26 01:58:59;;;;;;;66.38;28.05;;;;;;;5.63;58.90;101434.41;5112263;28;20030;-72
2022/03/26 02:01:25;;;;;;;63.60;28.52;;;;;;;5.59;59.03;101432.84;5113646;28;20512;-72
2022/03/26 02:03:51;;;;;;;61.90;28.38;;;;;;;5.51;58.95;101420.88;5113652;27;20023;-72
2022/03/26 02:06:19;;;;;;;64.10;28.20;;;;;;;5.52;59.28;101434.09;5112439;28;20031;-72
2022/03/26 02:08:45;;;;;;;62.70;27.92;;;;;;;5.53;59.21;101437.59;5113634;28;20090;-72
2022/03/26 02:11:11;;;;;;;54.95;26.23;;;;;;;5.48;59.41;101429.84;5112100;28;20115;-72
2022/03/26 02:13:49;;;;;;;56.72;26.90;;;;;;;5.46;59.42;101431.72;5111994;28;20031;-72
2022/03/26 02:16:15;;;;;;;58.42;27.77;;;;;;;5.42;59.25;101435.44;5110157;28;20548;-72
2022/03/26 02:18:41;;;;;;;60.58;27.92;;;;;;;5.39;58.97;101434.75;5113386;27;20069;-72
2022/03/26 02:21:06;;;;;;;58.83;25.65;;;;;;;5.31;58.72;101428.94;5113550;28;20020;-72
2022/03/26 02:23:32;;;;;;;56.80;25.05;;;;;;;5.33;58.66;101443.03;5111732;28;20027;-72
2022/03/26 02:25:57;;;;;;;51.67;24.25;;;;;;;5.25;58.60;101432.75;5113376;28;20386;-72
2022/03/26 02:28:23;;;;;;;64.45;27.05;;;;;;;5.24;58.75;101430.16;5112873;28;20039;-72
2022/03/26 02:30:48;;;;;;;56.92;26.60;;;;;;;5.19;58.95;101435.72;5112927;28;20039;-72
2022/03/26 02:33:13;;;;;;;59.70;26.30;;;;;;;5.07;59.13;101420.38;5113225;28;20023;-72
2022/03/26 02:35:39;;;;;;;63.28;28.00;;;;;;;5.01;59.03;101415.34;5111583;28;20493;-72
2022/03/26 02:38:04;;;;;;;56.17;25.67;;;;;;;4.91;59.71;101410.50;5112994;28;20054;-72
2022/03/26 02:40:30;;;;;;;60.67;26.90;;;;;;;4.86;59.79;101404.56;5111556;28;20481;-73
2022/03/26 02:42:55;;;;;;;64.13;27.23;;;;;;;4.80;59.93;101408.34;5111218;28;20465;-72
2022/03/26 02:45:21;;;;;;;60.80;26.95;;;;;;;4.87;60.42;101424.88;5112956;28;20397;-75
2022/03/26 02:47:48;;;;;;;53.38;26.95;;;;;;;4.77;60.75;101408.50;5112607;28;20157;-75
2022/03/26 02:50:14;;;;;;;57.13;26.83;;;;;;;4.82;60.88;101425.09;5111534;28;20055;-75
2022/03/26 02:52:40;;;;;;;61.53;27.30;;;;;;;4.71;60.91;101414.97;5112541;27;20540;-74
2022/03/26 02:55:08;;;;;;;55.17;26.05;;;;;;;4.74;60.95;101419.25;5110555;28;21386;-75
2022/03/26 02:57:34;;;;;;;52.63;25.10;;;;;;;4.72;61.37;101413.19;5111899;28;20019;-75
2022/03/26 02:59:59;;;;;;;57.42;24.75;;;;;;;4.76;61.68;101425.38;5112845;28;20399;-75
2022/03/26 03:02:25;;;;;;;53.35;24.90;;;;;;;4.74;61.54;101416.59;5111882;28;20102;-75
2022/03/26 03:04:50;;;;;;;52.85;26.50;;;;;;;4.70;61.80;101409.72;5112616;28;20475;-74
2022/03/26 03:07:16;;;;;;;56.38;25.33;;;;;;;4.73;61.70;101421.06;5111571;28;20034;-74
2022/03/26 03:09:41;;;;;;;49.45;24.70;;;;;;;4.68;61.57;101412.44;5112445;28;20034;-75
2022/03/26 03:12:09;;;;;;;57.63;24.67;;;;;;;4.72;61.47;101415.84;5111568;28;20056;-75
2022/03/26 03:14:36;;;;;;;57.80;25.40;;;;;;;4.60;61.56;101395.13;5108835;28;20027;-75
2022/03/26 03:17:02;;;;;;;52.70;25.40;;;;;;;4.63;61.37;101401.19;5111274;28;20062;-75
2022/03/26 03:19:27;;;;;;;49.47;25.00;;;;;;;4.58;61.80;101389.06;5111177;28;20063;-74
2022/03/26 03:21:53;;;;;;;52.72;24.80;;;;;;;4.69;61.90;101415.97;5112657;28;20034;-75
2022/03/26 03:24:18;;;;;;;59.28;25.83;;;;;;;4.64;61.90;101407.34;5112213;28;20015;-75
2022/03/26 03:26:44;;;;;;;53.72;24.60;;;;;;;4.59;62.13;101409.38;5109997;28;20027;-75
2022/03/26 03:29:09;;;;;;;50.22;24.58;;;;;;;4.60;62.70;101403.97;5112408;28;20058;-75
2022/03/26 03:31:35;;;;;;;50.67;24.58;;;;;;;4.54;62.87;101403.38;5110668;28;20078;-75
2022/03/26 03:34:01;;;;;;;50.67;22.63;;;;;;;4.52;63.16;101384.03;5110798;28;20023;-75
2022/03/26 03:36:26;;;;;;;43.75;21.90;;;;;;;4.47;62.98;101380.69;5112094;28;20046;-74
2022/03/26 03:38:52;;;;;;;48.35;24.20;;;;;;;4.55;63.70;101398.00;5111866;28;20425;-74
2022/03/26 03:41:17;;;;;;;51.78;24.00;;;;;;;4.59;63.88;101396.91;5112069;28;20034;-74
2022/03/26 03:43:43;;;;;;;43.47;22.60;;;;;;;4.57;64.34;101389.97;5111825;28;20038;-74
2022/03/26 03:46:09;;;;;;;47.47;22.13;;;;;;;4.59;64.85;101394.25;5110609;28;20034;-74
2022/03/26 03:48:34;;;;;;;50.35;21.42;;;;;;;4.62;65.54;101393.28;5111669;28;20042;-74
2022/03/26 03:50:59;;;;;;;36.88;20.00;;;;;;;4.54;65.78;101377.69;5111697;28;20046;-74
2022/03/26 03:53:25;;;;;;;34.90;18.08;;;;;;;4.66;66.33;101393.06;5111640;28;20028;-74
2022/03/26 03:55:50;;;;;;;33.08;17.55;;;;;;;4.76;66.82;101396.16;5111643;28;20036;-74
2022/03/26 03:58:16;;;;;;;36.92;18.27;;;;;;;4.72;68.33;101374.19;5111436;28;20462;-75
2022/03/26 04:00:41;;;;;;;34.00;16.38;;;;;;;4.87;69.37;101387.69;5111859;28;20766;-74
2022/03/26 04:03:07;;;;;;;27.67;14.70;;;;;;;4.93;69.90;101390.88;5110014;28;20122;-74
2022/03/26 04:05:32;;;;;;;31.85;15.70;;;;;;;4.97;70.10;101381.88;5111504;28;20024;-74
2022/03/26 04:07:58;;;;;;;27.25;14.93;;;;;;;5.08;70.64;101389.28;5110171;28;20016;-74
2022/03/26 04:10:23;;;;;;;39.28;15.80;;;;;;;5.13;70.94;101388.16;5111412;28;20031;-74
2022/03/26 04:12:49;;;;;;;29.30;14.98;;;;;;;5.18;70.42;101380.81;5110023;28;20012;-74
2022/03/26 04:15:14;;;;;;;25.67;14.73;;;;;;;5.21;69.77;101374.47;5111448;28;20382;-74
2022/03/26 04:17:40;;;;;;;27.00;14.48;;;;;;;5.33;69.34;101382.72;5111430;28;20532;-74
2022/03/26 04:20:08;;;;;;;28.08;14.75;;;;;;;5.43;69.38;101396.41;5111329;28;20039;-76
2022/03/26 04:22:37;;;;;;;24.90;14.15;;;;;;;5.41;68.82;101382.31;5110861;28;20028;-75
2022/03/26 04:25:04;;;;;;;26.20;14.20;;;;;;;5.56;68.56;101394.88;5111342;28;20027;-74
2022/03/26 04:27:30;;;;;;;25.63;13.40;;;;;;;5.54;68.07;101378.97;5108633;28;20398;-75
2022/03/26 04:29:55;;;;;;;24.75;13.63;;;;;;;5.60;67.59;101380.47;5109711;28;20073;-74
2022/03/26 04:32:21;;;;;;;27.85;12.68;;;;;;;5.73;67.08;101390.41;5109983;28;20020;-76
2022/03/26 04:34:46;;;;;;;23.20;12.63;;;;;;;5.71;66.89;101381.63;5111237;28;20039;-76
2022/03/26 04:37:12;;;;;;;19.90;11.48;;;;;;;5.83;66.51;101386.38;5111398;28;20034;-76
2022/03/26 04:39:38;;;;;;;23.83;11.63;;;;;;;5.83;66.13;101390.84;5110232;28;20031;-76
2022/03/26 04:42:03;;;;;;;22.80;11.70;;;;;;;5.91;65.87;101389.53;5111114;28;20483;-74
2022/03/26 04:44:29;;;;;;;24.65;11.82;;;;;;;5.98;65.82;101385.59;5109495;28;20494;-74
2022/03/26 04:46:54;;;;;;;22.23;11.48;;;;;;;5.98;65.68;101380.28;5109488;28;20031;-72
2022/03/26 04:49:20;;;;;;;26.60;10.55;;;;;;;6.07;65.39;101386.91;5110923;28;20039;-71
2022/03/26 04:51:46;;;;;;;20.70;10.85;;;;;;;6.11;65.59;101380.47;5110880;28;20115;-72
2022/03/26 04:54:11;;;;;;;19.00;10.50;;;;;;;6.13;65.18;101366.13;5110806;28;20391;-72
2022/03/26 04:56:37;;;;;;;23.38;11.52;;;;;;;6.26;65.00;101390.34;5110566;28;20028;-74
2022/03/26 04:59:02;;;;;;;25.70;11.02;;;;;;;6.14;64.63;101362.56;5110607;28;20070;-72
2022/03/26 05:01:28;;;;;;;24.30;11.15;;;;;;;6.29;64.47;101379.53;5110687;28;20024;-72
2022/03/26 05:03:53;;;;;;;19.58;10.63;;;;;;;6.37;64.25;101395.94;5109283;28;20463;-73
2022/03/26 05:06:19;;;;;;;19.55;10.90;;;;;;;6.43;64.14;101407.16;5110476;28;20016;-72
2022/03/26 05:08:45;;;;;;;23.67;10.70;;;;;;;6.40;63.89;101391.31;5109383;28;20066;-73
2022/03/26 05:11:10;;;;;;;23.25;10.63;;;;;;;6.44;63.85;101403.53;5110601;28;20023;-74
2022/03/26 05:13:35;;;;;;;18.92;10.18;;;;;;;6.39;63.92;101397.56;5109330;28;20011;-73
2022/03/26 05:16:03;;;;;;;23.20;11.23;;;;;;;6.46;63.53;101411.44;5109354;28;20118;-73
2022/03/26 05:18:28;;;;;;;25.15;13.00;;;;;;;6.35;63.15;101396.03;5110701;28;20104;-72
2022/03/26 05:20:56;;;;;;;25.88;12.93;;;;;;;6.39;62.77;101404.72;5110542;28;20501;-73
2022/03/26 05:23:23;;;;;;;27.27;14.48;;;;;;;6.46;62.66;101417.66;5110520;28;20363;-72
2022/03/26 05:25:48;;;;;;;26.85;15.13;;;;;;;6.36;62.48;101403.06;5110503;28;20035;-72
2022/03/26 05:28:13;;;;;;;30.23;15.13;;;;;;;6.42;61.66;101412.56;5109144;28;20152;-72
2022/03/26 05:30:40;;;;;;;27.63;15.38;;;;;;;6.38;61.97;101400.31;5110359;28;20027;-73
2022/03/26 05:33:05;;;;;;;28.83;14.30;;;;;;;6.42;61.85;101408.06;5109060;28;20065;-72
2022/03/26 05:35:31;;;;;;;32.55;14.15;;;;;;;6.46;62.70;101409.66;5110329;28;20039;-73
2022/03/26 05:37:56;;;;;;;24.10;13.38;;;;;;;6.53;63.03;101420.81;5108896;28;20020;-73
2022/03/26 05:40:22;;;;;;;24.73;12.77;;;;;;;6.57;62.84;101412.59;5109096;28;20041;-73
2022/03/26 05:42:49;;;;;;;31.67;12.95;;;;;;;6.63;62.79;101404.25;5110274;28;20044;-72
2022/03/26 05:45:15;;;;;;;23.88;12.63;;;;;;;6.70;61.87;101397.66;5109030;28;20052;-72
2022/03/26 05:47:41;;;;;;;19.02;11.55;;;;;;;6.93;61.76;101423.91;5110318;28;20391;-73
2022/03/26 05:50:10;;;;;;;21.30;10.30;;;;;;;7.09;60.75;101428.41;5111815;28;20031;-72
2022/03/26 05:52:35;;;;;;;26.25;10.48;;;;;;;7.24;60.81;101419.50;5111847;28;20032;-72
2022/03/26 05:55:01;;;;;;;30.15;11.98;;;;;;;7.45;59.99;101431.66;5114062;28;20035;-72
2022/03/26 05:57:27;;;;;;;21.85;11.77;;;;;;;7.52;59.48;101430.34;5113835;28;20039;-72
2022/03/26 05:59:52;;;;;;;22.85;11.45;;;;;;;7.75;59.12;101449.44;5114120;27;20088;-71
2022/03/26 06:02:18;;;;;;;19.85;13.15;;;;;;;7.87;59.39;101448.69;5114171;28;20031;-75
2022/03/26 06:04:44;;;;;;;44.83;19.60;;;;;;;8.04;58.82;101453.06;5113940;28;20031;-75
2022/03/26 06:07:10;;;;;;;71.00;24.02;;;;;;;8.13;59.10;101445.34;5111808;28;20024;-75
2022/03/26 06:09:37;;;;;;;52.85;21.30;;;;;;;8.27;58.30;101448.09;5112526;28;20027;-74
2022/03/26 06:12:03;;;;;;;40.65;20.08;;;;;;;8.48;57.60;101461.97;5113926;27;20027;-76
2022/03/26 06:14:29;;;;;;;35.85;17.45;;;;;;;8.60;56.90;101461.19;5112479;28;20578;-75
2022/03/26 06:16:56;;;;;;;26.08;15.32;;;;;;;8.64;56.14;101441.38;5113775;28;20038;-74
2022/03/26 06:19:21;;;;;;;30.92;15.23;;;;;;;8.84;55.94;101457.03;5113500;28;20053;-76
2022/03/26 06:21:47;;;;;;;28.20;14.40;;;;;;;9.00;55.66;101463.97;5112533;28;20035;-76
2022/03/26 06:24:12;;;;;;;33.03;15.48;;;;;;;9.10;54.70;101462.44;5112303;28;20037;-76
2022/03/26 06:26:39;;;;;;;32.72;15.80;;;;;;;9.25;54.43;101465.94;5112386;28;20015;-76
2022/03/26 06:29:05;;;;;;;23.95;14.85;;;;;;;9.40;54.31;101464.09;5113398;28;20135;-75
2022/03/26 06:31:31;;;;;;;30.90;14.70;;;;;;;9.56;53.76;101465.69;5106067;28;20035;-75
2022/03/26 06:33:57;;;;;;;35.08;14.73;;;;;;;9.73;53.60;101460.06;5112015;28;20028;-76
2022/03/26 06:36:23;;;;;;;30.17;14.93;;;;;;;9.92;52.86;101467.75;5112208;28;20040;-74
2022/03/26 06:38:48;;;;;;;32.08;14.13;;;;;;;10.31;51.31;101476.69;5110624;28;20103;-75
2022/03/26 06:41:15;;;;;;;34.75;14.15;;;;;;;10.76;49.97;101486.03;5111910;28;20801;-75
2022/03/26 06:43:42;;;;;;;29.92;14.52;;;;;;;10.79;49.90;101472.41;5109299;28;20485;-76
2022/03/26 06:46:08;;;;;;;31.65;13.88;;;;;;;11.13;49.05;101487.84;5111595;28;20027;-74
2022/03/26 06:48:35;;;;;;;33.80;14.40;;;;;;;11.19;48.92;101464.09;5093355;28;20035;-75
2022/03/26 06:51:02;;;;;;;34.58;14.02;;;;;;;11.47;48.66;101482.63;5109115;28;20110;-75
2022/03/26 06:53:33;;;;;;;22.08;12.63;;;;;;;11.67;48.44;101488.38;5113007;28;20417;-75
2022/03/26 06:55:59;;;;;;;27.98;12.07;;;;;;;11.96;45.89;101466.41;5112961;28;20470;-76
2022/03/26 06:58:25;;;;;;;23.70;12.55;;;;;;;12.18;45.53;101485.34;5111605;28;20027;-75
2022/03/26 07:00:51;;;;;;;23.60;13.07;;;;;;;12.37;44.78;101487.47;5112161;28;20035;-75
2022/03/26 07:03:16;;;;;;;24.77;12.95;;;;;;;12.60;44.83;101494.63;5112282;28;20383;-75
2022/03/26 07:05:42;;;;;;;23.80;11.65;;;;;;;12.66;44.33;101495.03;5111501;28;20039;-72
2022/03/26 07:08:09;;;;;;;26.88;12.13;;;;;;;12.80;44.16;101492.09;5111210;28;20402;-72
2022/03/26 07:10:35;;;;;;;27.20;12.02;;;;;;;12.86;nan;101496.13;5112183;28;20042;-73
2022/03/26 07:13:00;;;;;;;23.33;11.82;;;;;;;12.99;43.75;101496.91;5107912;28;20387;-73
2022/03/26 07:15:26;;;;;;;28.98;12.45;;;;;;;12.99;44.22;101483.44;5110705;28;20034;-75
2022/03/26 07:17:51;;;;;;;31.98;11.55;;;;;;;13.23;44.43;101492.28;5112272;28;20023;-76
2022/03/26 07:20:17;;;;;;;24.35;10.73;;;;;;;13.50;43.80;101500.84;5112319;28;20063;-76
2022/03/26 07:22:43;;;;;;;28.52;11.18;;;;;;;13.82;42.85;101500.88;5112108;28;20386;-75
2022/03/26 07:25:09;;;;;;;29.85;10.02;;;;;;;13.89;42.44;101492.16;5112348;28;20050;-75
2022/03/26 07:27:36;;;;;;;13.20;7.85;;;;;;;14.12;41.33;101493.81;5110647;28;20118;-74
2022/03/26 07:30:04;;;;;;;19.00;7.85;;;;;;;14.27;41.14;101491.69;5112167;28;20043;-75
2022/03/26 07:32:30;;;;;;;21.52;7.55;;;;;;;14.39;40.95;101505.03;5109644;28;20027;-75
2022/03/26 07:34:55;;;;;;;17.17;7.90;;;;;;;14.59;40.23;101487.09;5112060;28;20027;-74
2022/03/26 07:37:23;;;;;;;18.42;8.45;;;;;;;14.82;39.30;101485.97;5110882;28;20058;-76
2022/03/26 07:39:49;;;;;;;18.27;8.10;;;;;;;15.03;39.01;101498.44;5112051;28;20019;-75
2022/03/26 07:42:14;;;;;;;24.45;9.00;;;;;;;15.13;38.96;101483.13;5112085;28;20032;-75
2022/03/26 07:44:40;;;;;;;21.63;8.77;;;;;;;15.31;38.29;101483.34;5110393;28;20032;-74
2022/03/26 07:47:05;;;;;;;19.55;8.77;;;;;;;15.55;38.06;101482.03;5111869;28;20096;-74
2022/03/26 07:49:32;;;;;;;12.90;7.63;;;;;;;15.93;36.87;101499.38;5110511;28;20036;-75
2022/03/26 07:51:57;;;;;;;18.48;8.70;;;;;;;16.21;36.63;101495.81;5111830;28;20023;-76
2022/03/26 07:54:23;;;;;;;17.25;8.95;;;;;;;16.49;35.54;101487.75;5110718;28;20360;-75
2022/03/26 07:56:49;;;;;;;18.02;8.65;;;;;;;16.94;34.99;101491.50;5110368;28;20015;-74
2022/03/26 07:59:14;;;;;;;18.23;8.55;;;;;;;17.40;33.84;101480.63;5110194;28;20034;-76
2022/03/26 08:01:39;;;;;;;13.10;8.52;;;;;;;17.93;33.15;101487.03;5111761;28;20094;-75
2022/03/26 08:04:05;;;;;;;15.00;9.20;;;;;;;18.81;31.19;101489.75;5111529;28;20028;-75
2022/03/26 08:06:30;;;;;;;15.30;9.30;;;;;;;19.77;30.33;101483.97;5111799;28;20087;-76
2022/03/26 08:08:56;;;;;;;20.40;8.95;;;;;;;20.73;29.00;101478.66;5111575;28;20031;-75
2022/03/26 08:11:21;;;;;;;15.30;8.88;;;;;;;21.95;27.52;101472.66;5110291;28;20024;-76
2022/03/26 08:13:47;;;;;;;13.85;8.85;;;;;;;23.21;25.89;101481.00;5111221;28;20099;-75
2022/03/26 08:16:12;;;;;;;19.23;9.05;;;;;;;24.12;24.71;101465.81;5111270;28;20028;-75
2022/03/26 08:18:37;;;;;;;16.08;9.77;;;;;;;24.92;23.82;101477.34;5111418;28;20062;-76
2022/03/26 08:21:03;;;;;;;16.90;9.30;;;;;;;25.78;23.07;101458.44;5110086;28;20024;-77
2022/03/26 08:23:29;;;;;;;15.52;9.43;;;;;;;26.79;22.06;101470.09;5109872;28;20378;-75
2022/03/26 08:28:39;;;;;;;15.57;9.05;;;;;;;27.90;20.47;101467.13;5110872;28;20055;-75
2022/03/26 08:31:04;;;;;;;11.98;9.10;;;;;;;28.29;20.33;101455.88;5111152;28;20023;-75
2022/03/26 08:33:30;;;;;;;13.85;8.38;;;;;;;28.77;19.50;101456.16;5111109;28;20016;-75
2022/03/26 08:35:56;;;;;;;16.08;9.07;;;;;;;29.18;19.23;101456.44;5111629;28;20061;-75
2022/03/26 08:38:21;;;;;;;16.05;9.07;;;;;;;29.73;18.43;101453.47;5108329;28;20039;-76
2022/03/26 08:40:48;;;;;;;17.90;8.68;;;;;;;30.52;17.95;101462.38;5110819;28;20038;-75
2022/03/26 08:43:14;;;;;;;15.02;9.07;;;;;;;30.23;17.81;101451.31;5109512;28;20077;-76
2022/03/26 08:45:40;;;;;;;12.73;8.45;;;;;;;30.56;17.83;101454.41;5109414;28;20483;-75
2022/03/26 08:48:06;;;;;;;14.40;9.10;;;;;;;30.97;17.57;101448.84;5111039;28;20066;-75
2022/03/26 08:50:33;;;;;;;14.23;7.68;;;;;;;31.37;16.95;101454.50;5109496;28;20493;-74
2022/03/26 08:52:58;;;;;;;20.02;9.25;;;;;;;31.84;16.79;101437.53;5110609;28;20095;-76
2022/03/26 08:55:25;;;;;;;14.90;8.45;;;;;;;32.04;16.73;101440.69;5111124;28;20127;-76
2022/03/26 08:57:50;;;;;;;14.18;8.57;;;;;;;32.22;16.48;101439.66;5110398;28;20487;-74
2022/03/26 09:00:17;;;;;;;15.13;9.02;;;;;;;32.48;16.12;101431.56;5109341;28;20116;-75
2022/03/26 09:02:44;;;;;;;14.15;8.65;;;;;;;32.60;15.82;101442.59;5111165;28;20096;-75
2022/03/26 09:05:12;;;;;;;10.30;8.60;;;;;;;32.91;15.54;101427.31;5108324;28;20035;-76
2022/03/26 09:07:38;;;;;;;10.55;8.40;;;;;;;33.49;15.48;101430.41;5109271;28;20401;-76
2022/03/26 09:10:04;;;;;;;14.20;8.40;;;;;;;33.56;15.42;101428.28;5110702;28;20106;-75
2022/03/26 09:12:29;;;;;;;12.02;8.15;;;;;;;33.33;15.13;101428.47;5109311;28;20050;-75
2022/03/26 09:14:55;;;;;;;15.93;8.07;;;;;;;33.43;15.45;101417.53;5104620;28;20023;-75
2022/03/26 09:17:20;;;;;;;17.45;8.50;;;;;;;33.72;15.04;101417.03;5109077;28;20035;-75
2022/03/26 09:19:46;;;;;;;15.48;8.85;;;;;;;33.87;14.53;101405.28;5108943;28;20072;-74
2022/03/26 09:22:11;;;;;;;13.95;8.50;;;;;;;34.05;14.62;101407.72;5110002;28;20140;-76
2022/03/26 09:24:37;;;;;;;12.10;7.82;;;;;;;34.10;14.86;101407.75;5111252;28;20092;-76
2022/03/26 09:27:02;;;;;;;12.43;8.00;;;;;;;34.03;14.86;101409.91;5113204;28;20023;-76
2022/03/26 09:29:28;;;;;;;9.85;8.00;;;;;;;34.19;14.54;101412.59;5114512;28;20047;-77
2022/03/26 09:31:54;;;;;;;14.65;8.63;;;;;;;34.12;14.88;101392.47;5110475;28;20592;-76
2022/03/26 09:34:20;;;;;;;12.68;8.70;;;;;;;34.51;14.54;101399.56;5113481;28;20043;-74
2022/03/26 09:36:46;;;;;;;15.27;9.27;;;;;;;34.53;14.65;101399.28;5113846;28;20065;-74
2022/03/26 09:39:11;;;;;;;11.95;8.73;;;;;;;34.92;14.20;101389.59;5116080;28;20020;-74
2022/03/26 09:41:37;;;;;;;14.77;8.43;;;;;;;35.31;14.21;101381.69;5114982;28;20031;-74
2022/03/26 09:44:03;;;;;;;13.52;9.50;;;;;;;35.02;14.28;101386.00;5112767;28;20022;-74
2022/03/26 09:46:29;;;;;;;11.23;9.48;;;;;;;34.70;14.24;101394.41;5114574;28;20027;-74
2022/03/26 09:48:55;;;;;;;11.63;8.95;;;;;;;34.54;14.10;101392.59;5111133;28;20023;-73
2022/03/26 09:51:23;;;;;;;13.27;8.35;;;;;;;34.08;14.35;101390.47;5114576;28;20429;-74
2022/03/26 09:53:53;;;;;;;18.50;8.98;;;;;;;33.20;14.96;101376.81;5113597;28;20031;-73
2022/03/26 09:56:19;;;;;;;17.55;9.30;;;;;;;32.45;15.12;101384.84;5113746;28;20486;-76
2022/03/26 09:58:45;;;;;;;12.05;9.57;;;;;;;32.26;15.32;101380.59;5112922;28;20024;-76
2022/03/26 10:01:11;;;;;;;14.93;9.25;;;;;;;31.99;15.59;101382.31;5113235;28;20019;-77
2022/03/26 10:03:39;;;;;;;12.85;9.07;;;;;;;31.26;16.20;101386.84;5113091;28;20054;-76
2022/03/26 10:06:09;;;;;;;10.88;9.60;;;;;;;29.65;17.17;101386.56;5112442;28;20031;-76
2022/03/26 10:08:37;;;;;;;18.02;8.98;;;;;;;28.76;18.13;101390.94;5112196;28;20022;-76
2022/03/26 10:11:09;;;;;;;15.18;9.68;;;;;;;27.86;18.81;101369.34;5112652;28;20064;-76
2022/03/26 10:13:39;;;;;;;12.60;9.40;;;;;;;27.35;19.02;101379.53;5115240;28;20044;-76
2022/03/26 10:16:10;;;;;;;13.68;9.68;;;;;;;26.91;18.93;101388.53;5114370;28;20027;-76
2022/03/26 10:18:44;;;;;;;11.02;9.20;;;;;;;26.61;18.99;101383.69;5111744;28;20038;-77
2022/03/26 10:21:21;;;;;;;14.35;10.80;;;;;;;25.88;19.28;101381.91;5115553;28;20032;-77
2022/03/26 10:23:49;;;;;;;15.65;11.13;;;;;;;25.73;19.58;101373.81;5112242;28;20047;-76
2022/03/26 10:26:19;;;;;;;14.68;9.52;;;;;;;25.24;20.10;101369.63;5112537;28;20030;-76
2022/03/26 10:28:56;;;;;;;15.68;11.57;;;;;;;24.87;20.40;101370.03;5111528;28;20031;-75
2022/03/26 10:34:16;;;;;;;15.13;11.35;;;;;;;24.05;21.08;101358.81;5112830;28;20026;-77
2022/03/26 10:36:45;;;;;;;15.88;11.13;;;;;;;23.80;21.18;101359.38;5112955;28;20386;-76
2022/03/26 10:39:21;;;;;;;20.95;11.98;;;;;;;23.98;20.86;101368.88;5111136;28;20106;-77
2022/03/26 10:41:49;;;;;;;17.85;12.02;;;;;;;24.02;20.82;101348.22;5110940;28;20023;-74
2022/03/26 10:44:20;;;;;;;19.40;12.35;;;;;;;23.60;21.35;101363.81;5111433;28;20030;-75
2022/03/26 10:46:46;;;;;;;21.02;10.82;;;;;;;23.33;20.88;101361.75;5113302;28;20058;-74
2022/03/26 10:49:12;;;;;;;16.15;10.65;;;;;;;23.01;20.65;101349.31;5113628;28;20031;-74
2022/03/26 10:51:45;;;;;;;20.17;11.02;;;;;;;22.81;20.34;101356.41;5113260;28;20028;-79
2022/03/26 10:57:46;;;;;;;21.88;11.35;;;;;;;22.54;20.86;101348.00;5074567;28;20088;-77
2022/03/26 11:00:17;;;;;;;18.92;11.40;;;;;;;22.31;20.63;101348.00;5115076;28;20437;-76
2022/03/26 11:02:44;;;;;;;20.42;12.48;;;;;;;22.17;21.16;101330.56;5113288;28;20076;-76
2022/03/26 11:05:10;;;;;;;24.67;14.05;;;;;;;22.25;21.43;101332.38;5116928;28;20035;-77
2022/03/26 11:07:38;;;;;;;24.50;14.52;;;;;;;22.13;21.92;101329.25;5112364;28;20058;-77
2022/03/26 11:10:08;;;;;;;21.65;14.48;;;;;;;21.97;21.77;101332.13;5114237;28;20012;-77
2022/03/26 11:12:35;;;;;;;25.95;14.88;;;;;;;21.91;21.83;101326.53;5115130;28;20015;-76
2022/03/26 11:15:06;;;;;;;26.38;14.45;;;;;;;21.82;21.51;101311.22;5112513;28;20027;-76
2022/03/26 11:17:47;;;;;;;24.83;13.13;;;;;;;21.97;20.54;101310.25;5111598;28;20027;-77
2022/03/26 11:20:31;;;;;;;23.27;13.80;;;;;;;21.87;20.73;101303.34;5112757;28;20027;-76
2022/03/26 11:23:31;;;;;;;30.48;13.85;;;;;;;21.65;21.41;101305.03;5109986;28;20077;-76